KP3G Juncos PR US current weather conditions

sailwx.info

Wind from 106 at 2 knots gusting 6

Air temperature 25.6° C
Dewpoint 24.0° C

Last reported at 2019-Dec-15 22:05 UTC.
Time now 2019-Dec-15 23:05 UTC

Location: N 18°12' W 065°55'.
View on Google Maps.

See reports from other nearby stations

  
Tides and Currents Weather Stations Pressure Air Temp Water Temp Dewpoint Dewpoint Depression Visibility Wind Speed Wind Dir Waves Ship Positions
date/time (UTC)wind fromknots sea level pressurealtimeterstation pressurevisibilityair tempwater tempwave heightnotes
2019-Dec-15 22:05 106 2 gusting 6 25.6
2019-Dec-15 22:00 112 2 gusting 6 25.6
2019-Dec-15 21:55 115 1 gusting 6 26.1
2019-Dec-15 21:50 111 1 gusting 2 26.1
2019-Dec-15 21:45 113 2 gusting 6 26.1
2019-Dec-15 21:40 106 1 gusting 2 26.1
2019-Dec-15 21:35 106 0 gusting 2 26.1
2019-Dec-15 21:30 101 26.7
2019-Dec-15 21:25 102 1 gusting 5 26.7
2019-Dec-15 21:20 111 4 gusting 6 26.7
2019-Dec-15 21:15 120 2 gusting 7 26.7
2019-Dec-15 21:10 121 4 gusting 8 26.7
2019-Dec-15 21:05 105 4 gusting 7 26.7
2019-Dec-15 21:00 125 1 gusting 6 26.7
2019-Dec-15 20:55 102 2 gusting 2 26.7
2019-Dec-15 20:50 110 3 gusting 6 26.7
2019-Dec-15 20:45 117 5 gusting 10 26.7
2019-Dec-15 20:40 102 6 gusting 11 26.7
2019-Dec-15 20:35 099 5 gusting 10 27.2
2019-Dec-15 20:30 099 5 gusting 12 27.2
2019-Dec-15 20:25 113 5 gusting 10 27.2
2019-Dec-15 20:20 090 6 gusting 10 27.2
2019-Dec-15 20:15 107 6 gusting 12 27.2
2019-Dec-15 20:10 116 5 gusting 10 27.8
2019-Dec-15 20:05 104 6 gusting 11 27.8
2019-Dec-15 20:00 111 5 gusting 10 27.8
2019-Dec-15 19:55 104 5 gusting 11 27.8
2019-Dec-15 19:50 100 8 gusting 13 27.8
2019-Dec-15 19:45 101 6 gusting 13 28.3
2019-Dec-15 19:40 138 7 gusting 13 27.8
2019-Dec-15 19:35 126 6 gusting 11 27.8
2019-Dec-15 19:30 118 6 gusting 10 27.8
2019-Dec-15 19:25 112 6 gusting 11 27.2
2019-Dec-15 19:20 128 5 gusting 14 27.2
2019-Dec-15 19:15 131 6 gusting 14 27.2
2019-Dec-15 19:10 129 8 gusting 13 27.2
2019-Dec-15 19:05 131 5 gusting 10 27.2
2019-Dec-15 19:00 125 6 gusting 11 27.2
2019-Dec-15 18:55 143 6 gusting 13 27.2
2019-Dec-15 18:50 143 4 gusting 7 27.2
2019-Dec-15 18:45 126 6 gusting 11 26.7
2019-Dec-15 18:40 131 7 gusting 12 26.7
2019-Dec-15 18:35 120 7 gusting 13 26.1
2019-Dec-15 18:30 111 1 gusting 2 26.1
2019-Dec-15 18:25 110 3 gusting 6 25.6
2019-Dec-15 18:20 098 1 gusting 7 25.6
2019-Dec-15 18:15 110 2 gusting 6 25.6
2019-Dec-15 18:10 102 4 gusting 19 25.6
2019-Dec-15 18:05 094 4 gusting 14 26.1
2019-Dec-15 18:00 102 11 gusting 18 27.2
2019-Dec-15 17:55 112 7 gusting 14 27.8
2019-Dec-15 17:50 114 8 gusting 13 27.8
2019-Dec-15 17:45 122 6 gusting 12 28.3
2019-Dec-15 17:40 132 8 gusting 13 28.3
2019-Dec-15 17:35 121 8 gusting 15 28.3
2019-Dec-15 17:30 118 6 gusting 10 28.3
2019-Dec-15 17:25 119 6 gusting 13 28.3
2019-Dec-15 17:20 139 6 gusting 11 27.8
2019-Dec-15 17:15 099 8 gusting 15 28.3
2019-Dec-15 17:10 110 10 gusting 17 27.8
2019-Dec-15 17:05 100 8 gusting 13 27.2
2019-Dec-15 17:00 107 6 gusting 12 27.8
2019-Dec-15 16:55 139 7 gusting 13 27.8
2019-Dec-15 16:50 130 6 gusting 11 27.8
2019-Dec-15 16:45 121 2 gusting 10 27.2
2019-Dec-15 16:40 124 6 gusting 10 27.2
2019-Dec-15 16:35 130 4 gusting 7 26.7
2019-Dec-15 16:30 142 6 gusting 10 26.7
2019-Dec-15 16:25 133 6 gusting 10 26.1
2019-Dec-15 16:20 114 6 gusting 10 26.1
2019-Dec-15 16:15 140 4 gusting 6 25.6
2019-Dec-15 16:10 119 2 gusting 6 25.6
2019-Dec-15 16:05 149 5 gusting 10 25.0
2019-Dec-15 16:00 126 4 gusting 12 25.6
2019-Dec-15 15:55 092 9 gusting 14 26.7
2019-Dec-15 15:50 103 5 gusting 11 27.8
2019-Dec-15 15:45 112 6 gusting 12 27.8
2019-Dec-15 15:40 119 4 gusting 12 27.8
2019-Dec-15 15:35 112 6 gusting 13 27.8
2019-Dec-15 15:30 109 8 gusting 13 27.8
2019-Dec-15 15:25 096 7 gusting 17 27.8
2019-Dec-15 15:20 109 8 gusting 12 27.8
2019-Dec-15 15:15 124 6 gusting 11 27.8
2019-Dec-15 15:10 140 6 gusting 11 27.8
2019-Dec-15 15:05 144 6 gusting 10 27.8
2019-Dec-15 15:00 140 5 gusting 12 27.2
2019-Dec-15 14:55 128 5 gusting 14 27.2
2019-Dec-15 14:50 132 5 gusting 10 27.2
2019-Dec-15 14:45 129 7 gusting 10 27.2
2019-Dec-15 14:40 122 5 gusting 11 27.2
2019-Dec-15 14:35 145 6 gusting 8 26.7
2019-Dec-15 14:30 132 7 gusting 12 26.7
2019-Dec-15 14:25 134 6 gusting 11 26.1
2019-Dec-15 14:20 116 5 gusting 10 26.1
2019-Dec-15 14:15 120 7 gusting 11 26.1
2019-Dec-15 14:10 121 6 gusting 11 26.1
2019-Dec-15 14:05 115 7 gusting 13 26.1
2019-Dec-15 14:00 110 6 gusting 12 26.7
2019-Dec-15 13:55 107 5 gusting 11 26.1
2019-Dec-15 13:50 129 3 gusting 6 26.1
2019-Dec-15 13:45 096 5 gusting 10 25.6
2019-Dec-15 13:40 116 4 gusting 7 25.6
2019-Dec-15 13:35 095 3 gusting 7 25.6
2019-Dec-15 13:30 112 6 gusting 10 25.6
2019-Dec-15 13:25 119 5 gusting 10 25.6
2019-Dec-15 13:20 119 6 gusting 13 25.6
2019-Dec-15 13:15 113 6 gusting 10 25.6
2019-Dec-15 13:10 129 4 gusting 10 26.1
2019-Dec-15 13:05 097 3 gusting 7 25.6
2019-Dec-15 13:00 106 2 gusting 7 25.6
2019-Dec-15 12:55 116 4 gusting 6 25.0
2019-Dec-15 12:50 115 5 gusting 10 25.0
2019-Dec-15 12:45 102 4 gusting 10 25.0
2019-Dec-15 12:40 135 3 gusting 10 24.4
2019-Dec-15 12:35 116 4 gusting 6 24.4
2019-Dec-15 12:30 107 2 gusting 6 24.4
2019-Dec-15 12:25 111 0 gusting 2 24.4
2019-Dec-15 12:20 126 2 gusting 2 24.4
2019-Dec-15 12:15 118 1 gusting 6 24.4
2019-Dec-15 12:10 107 1 gusting 2 24.4
2019-Dec-15 12:05 160 2 gusting 6 23.9
2019-Dec-15 12:00 109 2 gusting 6 23.9
2019-Dec-15 11:55 116 2 gusting 6 23.9
2019-Dec-15 11:50 124 2 gusting 6 23.9
2019-Dec-15 11:45 124 2 gusting 8 23.9
2019-Dec-15 11:40 109 2 gusting 7 23.9
2019-Dec-15 11:35 111 4 gusting 6 23.9
2019-Dec-15 11:30 143 1 gusting 5 23.9
2019-Dec-15 11:25 120 1 gusting 4 23.9
2019-Dec-15 11:20 137 1 gusting 5 23.9
2019-Dec-15 11:15 102 1 gusting 2 23.9
2019-Dec-15 11:10 109 2 gusting 7 23.9
2019-Dec-15 11:05 119 2 gusting 6 23.3
2019-Dec-15 11:00 129 2 gusting 2 23.3
2019-Dec-15 10:55 153 0 gusting 2 23.3
2019-Dec-15 10:50 130 1 gusting 4 23.3
2019-Dec-15 10:45 121 0 gusting 2 23.3
2019-Dec-15 10:40 115 1 gusting 2 23.3
2019-Dec-15 10:35 147 0 gusting 2 22.8
2019-Dec-15 10:30 119 22.8
2019-Dec-15 10:25 218 22.8
2019-Dec-15 10:20 218 22.8
2019-Dec-15 10:15 218 22.8
2019-Dec-15 10:10 218 22.8
2019-Dec-15 10:05 218 23.3
2019-Dec-15 10:00 218 23.3
2019-Dec-15 09:55 218 0 gusting 2 22.8
2019-Dec-15 09:50 228 2 gusting 6 23.3
2019-Dec-15 09:45 237 3 gusting 4 23.3
2019-Dec-15 09:40 236 1 gusting 2 23.3
2019-Dec-15 09:35 231 0 gusting 2 23.3
2019-Dec-15 09:30 222 1 gusting 2 23.3
2019-Dec-15 09:25 209 0 gusting 4 23.3
2019-Dec-15 09:20 156 1 gusting 2 23.3
2019-Dec-15 09:15 187 3 gusting 7 23.3
2019-Dec-15 09:10 206 2 gusting 4 22.8
2019-Dec-15 09:05 236 1 gusting 2 22.8
2019-Dec-15 09:00 207 3 gusting 5 22.8
2019-Dec-15 08:55 219 2 gusting 4 22.8
2019-Dec-15 08:50 219 1 gusting 2 22.8
2019-Dec-15 08:45 174 1 gusting 1 22.8
2019-Dec-15 08:40 174 0 gusting 2 22.8
2019-Dec-15 08:35 151 1 gusting 2 22.8
2019-Dec-15 08:30 129 22.8
2019-Dec-15 08:25 127 22.8
2019-Dec-15 08:20 127 22.8
2019-Dec-15 08:15 127 0 gusting 2 22.8
2019-Dec-15 08:10 144 1 gusting 2 23.3
2019-Dec-15 08:05 138 1 gusting 2 23.3
2019-Dec-15 08:00 130 0 gusting 5 23.3
2019-Dec-15 07:55 145 4 gusting 6 23.3
2019-Dec-15 07:50 129 4 gusting 6 22.8
2019-Dec-15 07:45 110 1 gusting 5 22.8
2019-Dec-15 07:40 125 1 gusting 5 22.8
2019-Dec-15 07:35 127 2 gusting 6 22.8
2019-Dec-15 07:30 136 0 gusting 2 22.8
2019-Dec-15 07:25 171 0 gusting 2 22.8
2019-Dec-15 07:20 163 0 gusting 2 22.8
2019-Dec-15 07:15 097 2 gusting 5 22.8
2019-Dec-15 07:10 156 1 gusting 4 22.8
2019-Dec-15 07:05 160 1 gusting 5 23.3
2019-Dec-15 07:00 134 1 gusting 2 23.3
2019-Dec-15 06:55 110 2 gusting 6 23.3
2019-Dec-15 06:50 131 3 gusting 6 23.3
2019-Dec-15 06:45 163 0 gusting 4 23.3
2019-Dec-15 06:40 147 2 gusting 5 23.3
2019-Dec-15 06:35 154 0 gusting 1 23.3
2019-Dec-15 06:30 154 0 gusting 1 23.3
2019-Dec-15 06:25 154 0 gusting 2 23.3
2019-Dec-15 06:20 123 23.3
2019-Dec-15 06:15 123 1 gusting 2 23.3
2019-Dec-15 06:10 128 0 gusting 2 23.3
2019-Dec-15 06:05 120 1 gusting 2 23.3
2019-Dec-15 06:00 101 1 gusting 6 23.3
2019-Dec-15 05:55 112 2 gusting 6 23.3
2019-Dec-15 05:50 115 23.3
2019-Dec-15 05:45 155 23.3
2019-Dec-15 05:40 155 23.9
2019-Dec-15 05:35 155 23.9
2019-Dec-15 05:30 155 0 gusting 1 23.9
2019-Dec-15 05:25 155 23.9
2019-Dec-15 05:20 155 23.9
2019-Dec-15 05:15 138 23.9
2019-Dec-15 05:10 138 23.9
2019-Dec-15 05:05 148 0 gusting 2 23.9
2019-Dec-15 05:00 155 1 gusting 4 23.9
2019-Dec-15 04:55 160 1 gusting 4 23.9
2019-Dec-15 04:50 167 1 gusting 4 23.9
2019-Dec-15 04:45 136 0 gusting 2 23.9
2019-Dec-15 04:40 162 0 gusting 4 23.9
2019-Dec-15 04:35 145 0 gusting 2 23.9
2019-Dec-15 04:30 148 0 gusting 1 23.9
2019-Dec-15 04:25 143 1 gusting 2 23.9
2019-Dec-15 04:20 156 2 gusting 5 23.9
2019-Dec-15 04:15 129 1 gusting 5 23.9
2019-Dec-15 04:10 170 1 gusting 4 23.9
2019-Dec-15 04:05 170 1 gusting 4 23.9
2019-Dec-15 04:00 145 3 gusting 6 23.9
2019-Dec-15 03:55 151 1 gusting 2 23.9
2019-Dec-15 03:50 155 1 gusting 5 23.9
2019-Dec-15 03:45 127 1 gusting 5 23.9
2019-Dec-15 03:40 131 1 gusting 5 23.9
2019-Dec-15 03:35 132 2 gusting 5 23.9
2019-Dec-15 03:30 137 2 gusting 6 23.9
2019-Dec-15 03:25 134 2 gusting 4 23.9
2019-Dec-15 03:20 156 2 gusting 6 23.9
2019-Dec-15 03:15 151 2 gusting 4 23.9
2019-Dec-15 03:10 147 2 gusting 5 23.9
2019-Dec-15 03:05 141 1 gusting 4 23.9
2019-Dec-15 03:00 139 1 gusting 4 23.9
2019-Dec-15 02:55 130 2 gusting 4 24.4
2019-Dec-15 02:50 140 2 gusting 4 24.4
2019-Dec-15 02:45 154 2 gusting 4 24.4
2019-Dec-15 02:40 165 2 gusting 4 23.9
2019-Dec-15 02:35 146 2 gusting 5 24.4
2019-Dec-15 02:30 127 1 gusting 4 23.9
2019-Dec-15 02:25 151 1 gusting 2 23.9
2019-Dec-15 02:20 155 1 gusting 4 23.9
2019-Dec-15 02:15 140 1 gusting 4 23.9
2019-Dec-15 02:10 141 1 gusting 2 23.9
2019-Dec-15 02:05 139 1 gusting 4 23.9
2019-Dec-15 02:00 156 1 gusting 2 23.9
2019-Dec-15 01:55 136 1 gusting 2 23.9
2019-Dec-15 01:50 133 1 gusting 4 23.9
2019-Dec-15 01:45 126 1 gusting 4 23.9
2019-Dec-15 01:40 146 1 gusting 4 23.9
2019-Dec-15 01:35 156 1 gusting 4 23.9
2019-Dec-15 01:30 142 2 gusting 4 23.9
2019-Dec-15 01:25 131 1 gusting 4 23.9
2019-Dec-15 01:20 123 1 gusting 4 23.9
2019-Dec-15 01:15 131 2 gusting 6 23.9
2019-Dec-15 01:10 127 2 gusting 6 23.9
2019-Dec-15 01:05 122 2 gusting 6 23.9
2019-Dec-15 01:00 133 3 gusting 6 23.9
2019-Dec-15 00:55 133 2 gusting 6 23.9
2019-Dec-15 00:50 131 2 gusting 6 23.9
2019-Dec-15 00:45 133 1 gusting 4 23.9
2019-Dec-15 00:40 126 1 gusting 2 23.9
2019-Dec-15 00:35 142 2 gusting 5 23.9
2019-Dec-15 00:30 137 1 gusting 2 23.9
2019-Dec-15 00:25 132 0 gusting 2 23.9
2019-Dec-15 00:20 123 0 gusting 2 23.9
2019-Dec-15 00:15 124 1 gusting 5 23.9
2019-Dec-15 00:10 133 1 gusting 5 23.9
2019-Dec-15 00:05 132 3 gusting 6 23.9
2019-Dec-15 00:00 130 1 gusting 4 23.9
2019-Dec-14 23:55 121 2 gusting 6 23.9
2019-Dec-14 23:50 130 2 gusting 5 23.9
2019-Dec-14 23:45 138 23.9
2019-Dec-14 23:40 131 23.9
2019-Dec-14 23:35 129 23.9
2019-Dec-14 23:30 149 23.9
2019-Dec-14 23:25 148 23.9
2019-Dec-14 23:20 148 23.9
2019-Dec-14 23:15 148 0 gusting 2 23.9
2019-Dec-14 23:10 150 0 gusting 2 23.9
2019-Dec-14 23:05 148 1 gusting 2 23.9
2019-Dec-14 23:00 150 0 gusting 2 23.9
2019-Dec-14 22:55 194 1 gusting 5 23.9
2019-Dec-14 22:50 176 2 gusting 8 23.9
2019-Dec-14 22:45 168 1 gusting 6 24.4
2019-Dec-14 22:40 166 2 gusting 6 24.4
2019-Dec-14 22:35 137 2 gusting 6 24.4
2019-Dec-14 22:30 157 4 gusting 8 24.4
2019-Dec-14 22:25 134 1 gusting 5 24.4
2019-Dec-14 22:20 183 2 gusting 7 24.4
2019-Dec-14 22:15 173 5 gusting 10 24.4
2019-Dec-14 22:10 286 2 gusting 6 24.4
2019-Dec-14 22:05 194 1 gusting 5 24.4
2019-Dec-14 22:00 198 1 gusting 2 24.4
2019-Dec-14 21:55 141 0 gusting 2 24.4
2019-Dec-14 21:50 128 24.4
2019-Dec-14 21:45 128 24.4
2019-Dec-14 21:40 128 25.0
2019-Dec-14 21:35 128 25.0
2019-Dec-14 21:30 128 25.0
2019-Dec-14 21:25 128 25.0
2019-Dec-14 21:20 128 0 gusting 2 25.0
2019-Dec-14 21:05 092 4 gusting 6 25.6
2019-Dec-14 21:00 125 1 gusting 2 25.6
2019-Dec-14 20:55 128 1 gusting 2 25.6
2019-Dec-14 20:50 133 1 gusting 2 25.6
2019-Dec-14 20:45 115 0 gusting 2 25.6
2019-Dec-14 20:40 134 0 gusting 2 25.6
2019-Dec-14 20:35 120 3 gusting 10 26.1
2019-Dec-14 20:30 116 7 gusting 13 26.7
2019-Dec-14 20:25 113 5 gusting 10 26.7
2019-Dec-14 20:20 129 3 gusting 7 26.7
2019-Dec-14 20:15 130 5 gusting 8 26.7
2019-Dec-14 20:10 110 5 gusting 10 26.7
2019-Dec-14 20:05 124 4 gusting 6 26.7
2019-Dec-14 20:00 129 1 gusting 6 26.7
2019-Dec-14 19:55 127 3 gusting 6 26.1
2019-Dec-14 19:50 128 4 gusting 7 26.1
2019-Dec-14 19:45 133 4 gusting 6 26.1
2019-Dec-14 19:40 134 4 gusting 8 25.6
2019-Dec-14 19:35 121 4 gusting 6 25.6
2019-Dec-14 19:30 128 5 gusting 8 26.1
2019-Dec-14 19:25 125 5 gusting 10 26.1
2019-Dec-14 19:20 117 5 gusting 10 26.7
2019-Dec-14 19:15 100 5 gusting 11 26.7
2019-Dec-14 19:10 135 5 gusting 12 26.7
2019-Dec-14 19:05 129 5 gusting 10 26.1
2019-Dec-14 19:00 112 4 gusting 8 26.1
2019-Dec-14 18:55 116 4 gusting 6 26.1
2019-Dec-14 18:50 132 4 gusting 10 26.1
2019-Dec-14 18:45 109 3 gusting 8 26.1
2019-Dec-14 18:40 133 3 gusting 8 25.6
2019-Dec-14 18:35 117 4 gusting 10 25.0
2019-Dec-14 18:30 128 1 gusting 8 25.0
2019-Dec-14 18:25 129 6 gusting 10 25.0
2019-Dec-14 18:20 116 3 gusting 7 24.4
2019-Dec-14 18:15 124 4 gusting 10 23.9
2019-Dec-14 18:10 133 4 gusting 10 23.9
2019-Dec-14 18:05 151 4 gusting 10 24.4
2019-Dec-14 18:00 122 7 gusting 13 24.4
2019-Dec-14 17:55 138 9 gusting 17 25.6
2019-Dec-14 17:50 125 4 gusting 12 26.1
2019-Dec-14 17:45 119 2 gusting 6 26.7
2019-Dec-14 17:40 115 7 gusting 13 26.7
2019-Dec-14 17:35 099 9 gusting 17 27.2
2019-Dec-14 17:30 121 7 gusting 13 27.8
2019-Dec-14 17:25 110 2 gusting 10 28.3
2019-Dec-14 17:20 123 5 gusting 13 27.8
2019-Dec-14 17:15 123 7 gusting 13 27.8
2019-Dec-14 17:10 127 7 gusting 14 27.2
2019-Dec-14 17:05 132 6 gusting 13 27.2
2019-Dec-14 17:00 118 6 gusting 12 27.8
2019-Dec-14 16:55 119 9 gusting 12 27.8
2019-Dec-14 16:50 119 7 gusting 12 28.3
2019-Dec-14 16:45 128 8 gusting 13 28.3
2019-Dec-14 16:40 126 6 gusting 12 27.8
2019-Dec-14 16:35 123 7 gusting 12 27.8
2019-Dec-14 16:30 131 7 gusting 17 27.8
2019-Dec-14 16:25 122 9 gusting 15 27.8
2019-Dec-14 16:20 102 7 gusting 13 27.8
2019-Dec-14 16:15 113 6 gusting 11 27.2
2019-Dec-14 16:10 102 4 gusting 12 26.7
2019-Dec-14 16:05 111 7 gusting 13 26.7
2019-Dec-14 16:00 108 6 gusting 10 26.7
2019-Dec-14 15:55 104 6 gusting 10 26.7
2019-Dec-14 15:50 106 5 gusting 8 26.7
2019-Dec-14 15:45 099 5 gusting 8 26.7
2019-Dec-14 15:40 099 3 gusting 7 26.1
2019-Dec-14 15:35 101 4 gusting 10 26.1
2019-Dec-14 15:30 097 5 gusting 10 26.1
2019-Dec-14 15:25 103 6 gusting 13 26.7
2019-Dec-14 15:20 112 5 gusting 10 27.2
2019-Dec-14 15:15 114 2 gusting 10 27.8
2019-Dec-14 15:10 107 5 gusting 8 27.8
2019-Dec-14 15:05 093 6 gusting 12 27.8
2019-Dec-14 15:00 129 4 gusting 10 27.2
2019-Dec-14 14:55 095 4 gusting 7 27.2
2019-Dec-14 14:50 115 2 gusting 7 26.7
2019-Dec-14 14:45 129 7 gusting 11 26.7
2019-Dec-14 14:40 100 5 gusting 8 26.7
2019-Dec-14 14:35 109 5 gusting 11 26.7
2019-Dec-14 14:30 126 5 gusting 10 26.7
2019-Dec-14 14:25 111 6 gusting 12 26.7
2019-Dec-14 14:20 113 6 gusting 10 26.7
2019-Dec-14 14:15 107 5 gusting 8 26.1
2019-Dec-14 14:10 115 4 gusting 10 26.1
2019-Dec-14 14:05 118 6 gusting 11 25.6
2019-Dec-14 14:00 106 6 gusting 10 25.6
2019-Dec-14 13:55 098 3 gusting 7 25.6
2019-Dec-14 13:50 108 3 gusting 6 25.6
2019-Dec-14 13:45 111 2 gusting 6 25.6
2019-Dec-14 13:40 133 2 gusting 6 25.6
2019-Dec-14 13:35 144 4 gusting 7 25.6
2019-Dec-14 13:30 109 5 gusting 10 25.0
2019-Dec-14 13:25 126 5 gusting 8 25.0
2019-Dec-14 13:20 128 6 gusting 8 24.4
2019-Dec-14 13:15 107 4 gusting 7 24.4
2019-Dec-14 13:10 122 4 gusting 8 24.4
2019-Dec-14 13:05 128 6 gusting 10 23.9
2019-Dec-14 13:00 101 6 gusting 11 23.9
2019-Dec-14 12:55 108 6 gusting 10 24.4
2019-Dec-14 12:50 108 5 gusting 13 23.9
2019-Dec-14 12:45 106 6 gusting 10 23.9
2019-Dec-14 12:40 091 5 gusting 8 23.9
2019-Dec-14 12:35 112 5 gusting 10 23.9
2019-Dec-14 12:30 125 1 gusting 10 23.9
2019-Dec-14 12:25 117 4 gusting 7 23.9
2019-Dec-14 12:20 099 2 gusting 6 23.9
2019-Dec-14 12:15 108 1 gusting 4 23.9
2019-Dec-14 12:10 102 2 gusting 6 23.9
2019-Dec-14 12:05 109 1 gusting 5 23.9
2019-Dec-14 12:00 117 2 gusting 5 23.3
2019-Dec-14 11:55 116 2 gusting 7 23.3
2019-Dec-14 11:50 123 2 gusting 5 22.8
2019-Dec-14 11:45 127 2 gusting 5 22.8
2019-Dec-14 11:40 116 2 gusting 6 22.8
2019-Dec-14 11:35 138 1 gusting 2 22.8
2019-Dec-14 11:30 109 2 gusting 5 22.8
2019-Dec-14 11:25 088 1 gusting 6 22.8
2019-Dec-14 10:40 279 22.8
2019-Dec-14 10:35 268 2 gusting 5 22.8
2019-Dec-14 10:30 009 1 gusting 2 22.8
2019-Dec-14 10:25 139 0 gusting 4 22.8
2019-Dec-14 10:20 170 0 gusting 4 22.8
2019-Dec-14 10:15 163 0 gusting 1 22.8
2019-Dec-14 10:10 164 1 gusting 4 22.8
2019-Dec-14 10:05 205 1 gusting 4 22.8
2019-Dec-14 10:00 203 1 gusting 2 22.8
2019-Dec-14 09:55 203 1 gusting 2 22.8
2019-Dec-14 09:50 133 0 gusting 1 22.8
2019-Dec-14 09:45 132 0 gusting 2 22.8
2019-Dec-14 09:40 131 2 gusting 6 22.8
2019-Dec-14 09:35 120 1 gusting 5 22.8
2019-Dec-14 09:30 127 2 gusting 6 22.8
2019-Dec-14 09:25 117 1 gusting 12 22.8
2019-Dec-14 09:20 122 5 gusting 11 22.8
2019-Dec-14 09:05 179 1 gusting 2 22.2
2019-Dec-14 09:00 179 0 gusting 1 22.8
2019-Dec-14 08:55 179 22.8
2019-Dec-14 08:50 178 0 gusting 2 22.8
2019-Dec-14 08:45 200 2 gusting 4 22.8
2019-Dec-14 08:40 224 2 gusting 2 22.8
2019-Dec-14 08:35 249 2 gusting 2 22.8
2019-Dec-14 08:30 232 1 gusting 2 22.2
2019-Dec-14 08:25 224 1 gusting 2 22.2
2019-Dec-14 08:20 172 2 gusting 2 22.2
2019-Dec-14 08:15 166 2 gusting 2 22.2
2019-Dec-14 08:10 166 1 gusting 2 22.2
2019-Dec-14 08:05 166 1 gusting 2 22.2
2019-Dec-14 08:00 166 22.2
2019-Dec-14 07:55 166 22.2
2019-Dec-14 07:50 166 22.2
2019-Dec-14 07:45 166 22.2
2019-Dec-14 07:40 166 22.2
2019-Dec-14 07:35 166 22.2
2019-Dec-14 07:30 166 0 gusting 2 22.8
2019-Dec-14 07:25 166 0 gusting 2 22.8
2019-Dec-14 07:20 166 0 gusting 2 22.8
2019-Dec-14 07:15 159 1 gusting 2 22.8
2019-Dec-14 07:10 149 1 gusting 2 22.8
2019-Dec-14 07:05 127 0 gusting 2 22.8
2019-Dec-14 07:00 140 1 gusting 2 22.8
2019-Dec-14 06:55 153 1 gusting 4 22.2
2019-Dec-14 06:50 151 1 gusting 4 22.2
2019-Dec-14 06:45 148 2 gusting 6 22.2
2019-Dec-14 06:40 164 1 gusting 4 22.2
2019-Dec-14 06:35 159 1 gusting 2 22.2
2019-Dec-14 06:30 127 1 gusting 2 22.2
2019-Dec-14 06:25 104 2 gusting 5 22.2
2019-Dec-14 06:20 123 4 gusting 8 22.8
2019-Dec-14 06:15 125 5 gusting 10 22.8
2019-Dec-14 06:10 121 5 gusting 10 22.8
2019-Dec-14 06:05 114 5 gusting 10 22.8
2019-Dec-14 06:00 125 5 gusting 11 22.8
2019-Dec-14 05:55 123 1 gusting 2 22.8
2019-Dec-14 05:50 220 1 gusting 2 22.8
2019-Dec-14 05:45 222 0 gusting 2 22.2
2019-Dec-14 05:40 221 0 gusting 1 22.2
2019-Dec-14 05:35 221 0 gusting 2 22.2
2019-Dec-14 05:30 219 1 gusting 4 22.2
2019-Dec-14 05:25 180 0 gusting 5 22.2
2019-Dec-14 05:20 152 0 gusting 2 22.2
2019-Dec-14 05:15 192 1 gusting 2 22.2
2019-Dec-14 05:10 042 0 gusting 1 22.2
2019-Dec-14 05:05 042 22.2
2019-Dec-14 05:00 042 22.2
2019-Dec-14 04:55 042 22.2
2019-Dec-14 04:50 042 22.2
2019-Dec-14 04:45 042 22.2
2019-Dec-14 04:40 042 22.2
2019-Dec-14 04:35 030 0 gusting 2 22.2
2019-Dec-14 04:30 033 1 gusting 4 22.8
2019-Dec-14 04:25 063 2 gusting 4 22.8
2019-Dec-14 04:20 190 1 gusting 2 22.8
2019-Dec-14 04:15 177 1 gusting 2 22.8
2019-Dec-14 04:10 174 1 gusting 2 22.8
2019-Dec-14 04:05 148 22.8
2019-Dec-14 04:00 143 0 gusting 1 22.2
2019-Dec-14 03:55 143 0 gusting 1 22.2
2019-Dec-14 03:50 158 0 gusting 2 22.2
2019-Dec-14 03:45 186 0 gusting 2 22.2
2019-Dec-14 03:40 147 0 gusting 2 22.2
2019-Dec-14 03:35 143 0 gusting 2 22.2
2019-Dec-14 03:30 117 22.2
2019-Dec-14 03:25 117 22.2
2019-Dec-14 03:20 117 22.2
2019-Dec-14 03:15 117 0 gusting 2 22.2
2019-Dec-14 03:10 139 1 gusting 4 22.2
2019-Dec-14 03:05 176 0 gusting 2 22.2
2019-Dec-14 03:00 156 1 gusting 4 22.2
2019-Dec-14 02:55 170 1 gusting 2 22.2
2019-Dec-14 02:50 174 1 gusting 4 22.2
2019-Dec-14 02:45 168 1 gusting 4 22.2
2019-Dec-14 02:40 142 0 gusting 2 22.2
2019-Dec-14 02:35 135 22.8
2019-Dec-14 02:30 127 22.8
2019-Dec-14 02:25 127 22.8
2019-Dec-14 02:20 127 1 gusting 2 22.8
2019-Dec-14 02:15 102 0 gusting 5 22.8
2019-Dec-14 02:10 132 6 gusting 10 22.2
2019-Dec-14 02:05 147 22.2
2019-Dec-14 02:00 103 22.2
2019-Dec-14 01:55 082 22.2
2019-Dec-14 01:50 082 22.8
2019-Dec-14 01:45 082 1 gusting 2 22.8
2019-Dec-14 01:40 122 22.8
2019-Dec-14 01:35 122 0 gusting 2 22.8
2019-Dec-14 01:30 128 1 gusting 2 22.8
2019-Dec-14 01:25 113 1 gusting 2 22.8
2019-Dec-14 01:20 100 1 gusting 5 22.8
2019-Dec-14 01:15 122 1 gusting 2 22.8
2019-Dec-14 01:10 124 1 gusting 6 22.8
2019-Dec-14 01:05 111 3 gusting 11 22.8
2019-Dec-14 01:00 096 4 gusting 6 22.8
2019-Dec-14 00:55 123 1 gusting 6 22.8
2019-Dec-14 00:50 141 0 gusting 2 22.8
2019-Dec-14 00:45 236 1 gusting 2 22.8
2019-Dec-14 00:40 105 22.8
2019-Dec-14 00:35 105 22.8
2019-Dec-14 00:30 105 22.8
2019-Dec-14 00:25 105 22.8
2019-Dec-14 00:20 105 0 gusting 2 22.8
2019-Dec-14 00:15 059 1 gusting 2 23.3
2019-Dec-14 00:10 085 1 gusting 4 23.3
2019-Dec-14 00:05 077 4 gusting 10 23.3
2019-Dec-14 00:00 101 7 gusting 13 23.9
2019-Dec-13 23:55 091 6 gusting 19 24.4
2019-Dec-13 23:50 142 0 gusting 2 24.4
2019-Dec-13 23:45 142 0 gusting 1 24.4
2019-Dec-13 23:40 138 1 gusting 2 24.4
2019-Dec-13 23:35 137 0 gusting 2 24.4
2019-Dec-13 23:30 137 1 gusting 5 24.4
2019-Dec-13 23:25 125 2 gusting 6 24.4
2019-Dec-13 23:20 126 2 gusting 6 24.4
2019-Dec-13 23:15 116 2 gusting 7 24.4
2019-Dec-13 23:10 121 2 gusting 6 24.4
2019-Dec-13 23:05 109 4 gusting 7 24.4
2019-Dec-13 23:00 111 4 gusting 7 25.0